Time;durP1;ratioP1;P1;durP2;ratioP2;P2;SDS_P1;SDS_P2;PMS_P1;PMS_P2;Temp;Humidity;BMP_temperature;BMP_pressure;BME280_temperature;BME280_humidity;BME280_pressure;Samples;Min_cycle;Max_cycle;Signal;HPM_P1;HPM_P2
2023/05/29 00:00:17;;;;;;;5.38;2.63;;;;;;;14.34;100.00;101178.50;697692;28;1443;-59
2023/05/29 00:00:38;;;;;;;6.80;2.75;;;;;;;14.33;100.00;101175.00;698777;28;1006;-59
2023/05/29 00:00:59;;;;;;;6.47;2.92;;;;;;;14.44;100.00;101178.38;699867;28;925;-58
2023/05/29 00:01:20;;;;;;;6.30;2.97;;;;;;;14.48;100.00;101168.66;698779;28;1516;-58
2023/05/29 00:01:41;;;;;;;6.28;2.80;;;;;;;14.54;100.00;101176.50;699265;28;4600;-59
2023/05/29 00:02:01;;;;;;;5.23;2.90;;;;;;;14.54;100.00;101180.88;699512;28;1211;-58
2023/05/29 00:02:21;;;;;;;5.60;2.90;;;;;;;14.49;100.00;101180.94;698445;28;1342;-58
2023/05/29 00:02:44;;;;;;;6.07;3.05;;;;;;;14.44;100.00;101174.84;699714;28;1002;-59
2023/05/29 00:03:04;;;;;;;5.43;2.90;;;;;;;14.35;100.00;101175.00;698143;28;1407;-59
2023/05/29 00:03:25;;;;;;;6.70;2.92;;;;;;;14.30;100.00;101175.03;699798;28;994;-59
2023/05/29 00:03:45;;;;;;;5.93;2.67;;;;;;;14.35;100.00;101175.00;699248;28;1068;-59
2023/05/29 00:04:06;;;;;;;5.23;2.80;;;;;;;14.37;100.00;101178.47;699196;28;1539;-59
2023/05/29 00:04:26;;;;;;;5.30;2.70;;;;;;;14.30;100.00;101170.66;699978;28;4382;-58
2023/05/29 00:04:47;;;;;;;6.55;2.80;;;;;;;14.38;100.00;101180.19;696171;28;1353;-59
2023/05/29 00:05:07;;;;;;;5.97;2.70;;;;;;;14.47;100.00;101180.09;696166;28;1464;-59
2023/05/29 00:05:27;;;;;;;5.73;2.70;;;;;;;14.43;100.00;101181.88;697643;28;980;-59
2023/05/29 00:05:49;;;;;;;6.53;2.60;;;;;;;14.42;100.00;101181.91;696695;28;990;-58
2023/05/29 00:06:10;;;;;;;6.38;2.65;;;;;;;14.47;100.00;101174.84;695759;28;974;-59
2023/05/29 00:06:30;;;;;;;5.30;2.63;;;;;;;14.50;100.00;101177.41;697991;28;880;-59
2023/05/29 00:06:51;;;;;;;5.28;2.65;;;;;;;14.52;100.00;101180.88;698899;28;1135;-58
2023/05/29 00:07:12;;;;;;;6.00;2.63;;;;;;;14.50;100.00;101173.94;698123;28;2181;-59
2023/05/29 00:07:32;;;;;;;6.70;2.93;;;;;;;14.40;100.00;101181.03;697174;28;4430;-59
2023/05/29 00:07:52;;;;;;;6.93;3.03;;;;;;;14.36;100.00;101187.22;697177;28;1182;-59
2023/05/29 00:08:13;;;;;;;5.70;2.90;;;;;;;14.29;100.00;101189.09;695628;28;1436;-59
2023/05/29 00:08:33;;;;;;;6.15;2.80;;;;;;;14.26;100.00;101183.84;698152;28;891;-59
2023/05/29 00:08:54;;;;;;;5.63;3.00;;;;;;;14.26;100.00;101181.22;697084;28;1119;-59
2023/05/29 00:09:15;;;;;;;5.97;2.75;;;;;;;14.25;100.00;101179.50;698826;28;925;-59
2023/05/29 00:09:38;;;;;;;5.43;2.80;;;;;;;14.23;100.00;101181.25;701157;28;1100;-59
2023/05/29 00:09:58;;;;;;;5.63;2.85;;;;;;;14.25;100.00;101175.09;700799;28;944;-59
2023/05/29 00:10:18;;;;;;;6.20;3.13;;;;;;;14.17;100.00;101182.19;697856;28;1444;-60
2023/05/29 00:10:40;;;;;;;6.78;3.28;;;;;;;14.13;100.00;101178.72;699023;28;4331;-59
2023/05/29 00:11:00;;;;;;;5.32;2.60;;;;;;;14.14;100.00;101182.25;701191;28;1189;-58
2023/05/29 00:11:20;;;;;;;5.70;2.60;;;;;;;14.17;100.00;101176.06;698124;28;1547;-59
2023/05/29 00:11:41;;;;;;;5.75;2.70;;;;;;;14.12;100.00;101178.75;699713;28;950;-59
2023/05/29 00:12:02;;;;;;;6.20;3.03;;;;;;;14.18;100.00;101183.06;701161;28;1302;-59
2023/05/29 00:12:22;;;;;;;5.97;3.03;;;;;;;14.20;100.00;101187.41;702485;28;1065;-58
2023/05/29 00:12:43;;;;;;;7.25;2.90;;;;;;;14.19;100.00;101185.69;701628;28;1121;-59
2023/05/29 00:13:03;;;;;;;7.27;2.97;;;;;;;14.09;100.00;101174.38;702396;28;1494;-59
2023/05/29 00:13:23;;;;;;;7.25;2.90;;;;;;;14.08;100.00;101182.28;702048;28;5417;-59
2023/05/29 00:13:44;;;;;;;6.70;2.80;;;;;;;14.16;100.00;101177.81;702211;28;1007;-58
2023/05/29 00:14:04;;;;;;;6.10;2.70;;;;;;;14.17;100.00;101181.34;701481;28;1385;-59
2023/05/29 00:14:25;;;;;;;5.57;2.70;;;;;;;14.19;100.00;101180.44;699811;28;1174;-58
2023/05/29 00:14:45;;;;;;;5.30;2.97;;;;;;;14.20;100.00;101176.03;698636;28;970;-59
2023/05/29 00:15:06;;;;;;;5.30;2.80;;;;;;;14.15;100.00;101176.09;698865;28;909;-59
2023/05/29 00:15:28;;;;;;;5.50;2.95;;;;;;;14.14;100.00;101179.59;700370;28;898;-59
2023/05/29 00:15:48;;;;;;;5.63;3.00;;;;;;;14.11;100.00;101177.88;698836;28;938;-59
2023/05/29 00:16:09;;;;;;;5.13;2.67;;;;;;;14.07;100.00;101181.44;698532;28;1537;-60
2023/05/29 00:16:29;;;;;;;5.50;2.75;;;;;;;14.05;100.00;101177.06;700488;28;4342;-59
2023/05/29 00:16:52;;;;;;;6.07;2.60;;;;;;;14.02;100.00;101177.13;698804;28;1110;-59
2023/05/29 00:17:12;;;;;;;6.55;2.67;;;;;;;13.96;100.00;101172.78;698482;28;1910;-59
2023/05/29 00:17:33;;;;;;;5.83;2.80;;;;;;;14.10;100.00;101180.53;700513;28;1352;-56
2023/05/29 00:17:53;;;;;;;6.53;2.80;;;;;;;14.09;100.00;101174.38;699491;28;1157;-58
2023/05/29 00:18:14;;;;;;;5.60;2.70;;;;;;;14.14;100.00;101175.22;698778;28;1416;-59
2023/05/29 00:18:36;;;;;;;7.45;3.03;;;;;;;14.09;100.00;101176.16;701108;28;780;-59
2023/05/29 00:18:57;;;;;;;6.60;3.03;;;;;;;14.20;100.00;101178.66;699641;28;1022;-58
2023/05/29 00:19:19;;;;;;;5.60;2.65;;;;;;;14.10;100.00;101175.28;698791;28;1541;-59
2023/05/29 00:19:39;;;;;;;5.88;2.60;;;;;;;14.02;100.00;101177.13;699335;28;4427;-58
2023/05/29 00:20:01;;;;;;;4.60;2.50;;;;;;;14.01;100.00;101175.38;701115;28;903;-59
2023/05/29 00:20:21;;;;;;;5.60;2.60;;;;;;;14.00;100.00;101176.25;699044;28;1178;-59
2023/05/29 00:20:42;;;;;;;5.60;2.72;;;;;;;13.93;100.00;101173.69;698799;28;1164;-59
2023/05/29 00:21:02;;;;;;;5.00;2.63;;;;;;;13.92;100.00;101169.31;700468;28;868;-59
2023/05/29 00:21:23;;;;;;;4.82;2.50;;;;;;;13.91;100.00;101171.97;700218;28;909;-59
2023/05/29 00:21:43;;;;;;;6.77;2.73;;;;;;;13.91;100.00;101177.22;699610;28;972;-59
2023/05/29 00:22:04;;;;;;;6.07;2.83;;;;;;;13.95;100.00;101173.69;697392;28;1713;-60
2023/05/29 00:22:25;;;;;;;6.35;2.80;;;;;;;13.92;100.00;101177.19;694283;28;4556;-59
2023/05/29 00:22:46;;;;;;;5.18;2.70;;;;;;;13.95;100.00;101177.16;694985;28;912;-59
2023/05/29 00:23:06;;;;;;;5.13;2.70;;;;;;;13.90;100.00;101171.09;696231;28;1557;-59
2023/05/29 00:23:27;;;;;;;5.57;2.80;;;;;;;13.88;100.00;101175.50;698402;28;907;-59
2023/05/29 00:23:47;;;;;;;5.23;2.60;;;;;;;13.88;100.00;101175.50;697186;28;1011;-59
2023/05/29 00:24:07;;;;;;;5.50;2.80;;;;;;;13.84;100.00;101181.66;698481;28;1439;-59
2023/05/29 00:24:28;;;;;;;5.90;2.80;;;;;;;13.82;100.00;101172.06;701764;28;1248;-59
2023/05/29 00:24:48;;;;;;;5.77;2.80;;;;;;;13.81;100.00;101170.34;700309;28;1070;-59
2023/05/29 00:25:08;;;;;;;5.60;2.67;;;;;;;13.79;100.00;101172.97;698643;28;1476;-59
2023/05/29 00:25:29;;;;;;;6.57;2.87;;;;;;;13.79;100.00;101175.59;700525;28;4692;-59
2023/05/29 00:25:49;;;;;;;6.10;2.72;;;;;;;13.81;100.00;101175.59;699818;28;1656;-59
2023/05/29 00:26:10;;;;;;;5.10;2.50;;;;;;;13.83;100.00;101173.81;698876;28;1518;-59
2023/05/29 00:26:32;;;;;;;5.72;2.47;;;;;;;13.78;100.00;101172.09;701349;28;1466;-59
2023/05/29 00:26:53;;;;;;;6.17;2.50;;;;;;;13.79;100.00;101171.22;694671;28;1423;-59
2023/05/29 00:27:13;;;;;;;5.57;2.47;;;;;;;13.96;100.00;101175.44;693261;28;1514;-59
2023/05/29 00:27:35;;;;;;;5.50;2.80;;;;;;;13.91;100.00;101169.34;696029;28;909;-59
2023/05/29 00:27:55;;;;;;;5.63;2.78;;;;;;;13.87;100.00;101170.25;697461;28;1203;-58
2023/05/29 00:28:16;;;;;;;7.37;2.90;;;;;;;13.96;100.00;101173.66;696133;28;1600;-58
2023/05/29 00:28:36;;;;;;;7.50;2.65;;;;;;;13.98;100.00;101168.38;696571;28;4509;-58
2023/05/29 00:28:56;;;;;;;6.27;2.67;;;;;;;14.06;100.00;101173.56;695882;28;931;-58
2023/05/29 00:29:17;;;;;;;5.03;2.90;;;;;;;14.00;100.00;101177.13;693134;28;1488;-59
2023/05/29 00:29:37;;;;;;;6.17;2.87;;;;;;;13.94;100.00;101172.81;694841;28;1338;-59
2023/05/29 00:29:59;;;;;;;5.45;2.60;;;;;;;14.01;100.00;101176.25;693388;28;877;-58
2023/05/29 00:30:20;;;;;;;5.32;2.50;;;;;;;13.98;100.00;101173.63;693483;28;1558;-59
2023/05/29 00:30:40;;;;;;;5.70;3.10;;;;;;;13.96;100.00;101172.78;694952;28;1526;-59
2023/05/29 00:31:01;;;;;;;5.40;2.95;;;;;;;13.92;100.00;101177.19;695796;28;1339;-59
2023/05/29 00:31:21;;;;;;;5.40;2.50;;;;;;;13.91;100.00;101175.44;692340;28;4436;-58
2023/05/29 00:31:41;;;;;;;5.20;2.55;;;;;;;13.90;100.00;101178.09;695076;28;1293;-59
2023/05/29 00:32:02;;;;;;;4.90;2.53;;;;;;;13.83;100.00;101177.31;695513;28;848;-59
2023/05/29 00:32:22;;;;;;;5.53;2.70;;;;;;;13.82;100.00;101180.81;693705;28;1506;-59
2023/05/29 00:32:43;;;;;;;5.30;2.73;;;;;;;13.79;100.00;101178.22;697257;28;1399;-59
2023/05/29 00:33:03;;;;;;;5.07;2.70;;;;;;;13.78;100.00;101187.84;701300;28;1026;-59
2023/05/29 00:33:24;;;;;;;5.13;2.63;;;;;;;13.78;100.00;101185.22;696234;28;1423;-59
2023/05/29 00:33:44;;;;;;;4.70;2.63;;;;;;;13.77;100.00;101177.34;695924;28;5548;-59
2023/05/29 00:34:05;;;;;;;5.30;2.80;;;;;;;13.77;100.00;101182.63;700360;28;1597;-59
2023/05/29 00:34:26;;;;;;;4.97;2.65;;;;;;;13.75;100.00;101184.41;699702;28;4856;-59
2023/05/29 00:34:46;;;;;;;5.35;2.60;;;;;;;13.74;100.00;101183.50;696942;28;1920;-59
2023/05/29 00:35:07;;;;;;;4.93;2.43;;;;;;;13.75;100.00;101182.63;696853;28;1670;-59
2023/05/29 00:35:28;;;;;;;6.15;2.55;;;;;;;13.76;100.00;101187.00;698437;28;1322;-59
2023/05/29 00:35:49;;;;;;;6.93;2.77;;;;;;;13.74;100.00;101182.66;696766;28;1360;-59
2023/05/29 00:36:10;;;;;;;5.47;2.80;;;;;;;13.70;100.00;101186.19;693853;28;1571;-58
2023/05/29 00:36:31;;;;;;;6.00;2.40;;;;;;;13.68;100.00;101186.22;692663;28;1082;-59
2023/05/29 00:36:52;;;;;;;6.05;2.67;;;;;;;13.64;100.00;101187.13;689863;28;1521;-59
2023/05/29 00:37:13;;;;;;;5.82;2.90;;;;;;;13.66;100.00;101189.75;691339;28;1899;-59
2023/05/29 00:37:33;;;;;;;5.18;2.90;;;;;;;13.65;100.00;101187.97;692212;28;4300;-59
2023/05/29 00:37:53;;;;;;;4.87;2.43;;;;;;;13.66;100.00;101182.72;693455;28;1201;-59
2023/05/29 00:38:14;;;;;;;5.35;2.60;;;;;;;13.68;100.00;101187.94;695970;28;1133;-59
2023/05/29 00:38:34;;;;;;;5.17;2.60;;;;;;;13.67;100.00;101191.50;697794;28;844;-59
2023/05/29 00:38:55;;;;;;;4.68;2.58;;;;;;;13.67;100.00;101187.09;696070;28;891;-59
2023/05/29 00:39:15;;;;;;;5.20;2.60;;;;;;;13.73;100.00;101191.41;696399;28;1559;-58
2023/05/29 00:39:36;;;;;;;7.18;2.80;;;;;;;13.75;100.00;101184.41;700938;28;971;-60
2023/05/29 00:39:56;;;;;;;6.90;2.70;;;;;;;13.77;100.00;101187.88;699571;28;963;-59
2023/05/29 00:40:16;;;;;;;5.90;2.65;;;;;;;13.76;100.00;101181.75;696421;28;1663;-59
2023/05/29 00:40:37;;;;;;;5.13;2.60;;;;;;;13.85;100.00;101191.28;694664;28;4358;-59
2023/05/29 00:40:58;;;;;;;5.80;2.87;;;;;;;13.86;100.00;101193.03;693647;28;3332;-59
2023/05/29 00:41:19;;;;;;;5.90;2.90;;;;;;;13.80;100.00;101187.84;695299;28;1485;-59
2023/05/29 00:41:39;;;;;;;7.45;3.05;;;;;;;13.80;100.00;101187.84;692488;28;1211;-59
2023/05/29 00:42:00;;;;;;;6.03;2.60;;;;;;;13.76;100.00;101192.28;687901;28;1021;-59
2023/05/29 00:42:20;;;;;;;6.05;2.65;;;;;;;13.74;100.00;101188.78;690936;28;1464;-59
2023/05/29 00:42:41;;;;;;;6.67;2.83;;;;;;;13.74;100.00;101194.03;694567;28;1069;-58
2023/05/29 00:43:01;;;;;;;6.28;2.60;;;;;;;13.73;100.00;101194.91;695471;28;952;-59
2023/05/29 00:43:21;;;;;;;5.73;2.70;;;;;;;13.70;100.00;101194.94;690578;28;4755;-60
2023/05/29 00:43:43;;;;;;;5.87;2.67;;;;;;;13.70;100.00;101199.34;697388;28;924;-58
2023/05/29 00:44:05;;;;;;;5.97;2.75;;;;;;;13.60;100.00;101196.78;701021;28;1483;-58
2023/05/29 00:44:30;;;;;;;5.28;2.70;;;;;;;13.58;100.00;101193.31;701141;28;1239;-58
2023/05/29 00:44:52;;;;;;;5.13;2.58;;;;;;;13.62;100.00;101195.03;698400;28;952;-59
2023/05/29 00:45:13;;;;;;;5.65;2.47;;;;;;;13.68;100.00;101199.34;697865;28;1587;-59
2023/05/29 00:45:37;;;;;;;6.78;2.50;;;;;;;13.70;100.00;101191.44;701397;28;1332;-59
2023/05/29 00:45:58;;;;;;;5.72;2.50;;;;;;;13.70;100.00;101194.06;695853;28;1002;-59
2023/05/29 00:46:20;;;;;;;5.47;2.33;;;;;;;13.72;100.00;101198.44;694827;28;1519;-58
2023/05/29 00:46:40;;;;;;;6.10;2.80;;;;;;;13.81;100.00;101202.72;691475;28;4856;-58
2023/05/29 00:47:01;;;;;;;6.18;2.78;;;;;;;13.81;100.00;101194.84;692906;28;1263;-58
2023/05/29 00:47:21;;;;;;;6.20;2.70;;;;;;;13.78;100.00;101187.84;688094;28;1540;-57
2023/05/29 00:47:42;;;;;;;6.03;2.80;;;;;;;13.76;100.00;101200.16;686848;28;938;-59
2023/05/29 00:48:04;;;;;;;5.40;3.03;;;;;;;13.73;100.00;101187.00;690179;28;1204;-58
2023/05/29 00:48:25;;;;;;;6.70;3.17;;;;;;;13.70;100.00;101189.69;691432;28;1522;-58
2023/05/29 00:48:46;;;;;;;7.78;3.17;;;;;;;13.73;100.00;101187.00;694793;28;1373;-58
2023/05/29 00:49:07;;;;;;;7.10;3.20;;;;;;;13.73;100.00;101189.66;693814;28;1647;-59
2023/05/29 00:49:27;;;;;;;6.00;2.92;;;;;;;13.72;100.00;101190.56;695314;28;4353;-59
2023/05/29 00:49:51;;;;;;;6.05;2.92;;;;;;;13.72;100.00;101187.03;693504;28;960;-58
2023/05/29 00:50:13;;;;;;;7.00;2.75;;;;;;;13.68;100.00;101194.09;694754;28;1138;-59
2023/05/29 00:50:34;;;;;;;4.45;2.60;;;;;;;13.73;100.00;101191.41;697947;28;1516;-58
2023/05/29 00:50:55;;;;;;;5.63;2.83;;;;;;;13.75;100.00;101189.66;696132;28;1234;-59
2023/05/29 00:51:16;;;;;;;7.00;3.08;;;;;;;13.84;100.00;101192.19;695931;28;1570;-58
2023/05/29 00:51:37;;;;;;;6.25;3.03;;;;;;;13.82;100.00;101186.09;696666;28;1165;-59
2023/05/29 00:51:58;;;;;;;5.88;2.92;;;;;;;13.77;100.00;101191.34;694995;28;1981;-58
2023/05/29 00:52:19;;;;;;;5.90;2.80;;;;;;;13.82;100.00;101188.72;692167;28;1696;-58
2023/05/29 00:52:45;;;;;;;6.90;3.20;;;;;;;13.93;100.00;101189.47;696104;28;6000;-58
2023/05/29 00:53:07;;;;;;;6.72;3.45;;;;;;;13.91;100.00;101191.22;694205;28;2116;-59
2023/05/29 00:53:28;;;;;;;6.55;2.70;;;;;;;13.81;100.00;101189.59;695419;28;988;-59
2023/05/29 00:53:50;;;;;;;6.15;2.95;;;;;;;13.75;100.00;101195.78;691558;28;1575;-58
2023/05/29 00:54:21;;;;;;;5.75;2.72;;;;;;;13.70;100.00;101194.06;692153;28;1600;-58
2023/05/29 00:54:44;;;;;;;5.65;2.78;;;;;;;13.63;100.00;101191.50;695170;28;995;-58
2023/05/29 00:55:05;;;;;;;7.40;3.20;;;;;;;13.63;100.00;101196.75;695652;28;1221;-59
2023/05/29 00:55:26;;;;;;;7.75;3.03;;;;;;;13.59;100.00;101199.41;694696;28;4489;-59
2023/05/29 00:55:46;;;;;;;7.00;3.20;;;;;;;13.56;100.00;101195.06;694286;28;972;-60
2023/05/29 00:56:07;;;;;;;4.85;2.53;;;;;;;13.55;100.00;101193.31;691703;28;3718;-60
2023/05/29 00:56:28;;;;;;;5.63;2.50;;;;;;;13.53;100.00;101200.34;693433;28;1209;-58
2023/05/29 00:56:49;;;;;;;6.47;2.73;;;;;;;13.44;100.00;101205.66;694885;28;1135;-58
2023/05/29 00:57:10;;;;;;;7.50;2.80;;;;;;;13.43;100.00;101206.53;693931;28;1674;-59
2023/05/29 00:57:30;;;;;;;7.10;2.90;;;;;;;13.40;100.00;101198.69;697620;28;1964;-59
2023/05/29 00:57:51;;;;;;;5.22;3.00;;;;;;;13.52;100.00;101198.59;696902;28;1357;-59
2023/05/29 00:58:11;;;;;;;6.13;3.20;;;;;;;13.51;100.00;101207.34;696314;28;1491;-59
2023/05/29 00:58:33;;;;;;;6.75;2.85;;;;;;;13.47;100.00;101210.03;694530;28;4918;-59
2023/05/29 00:58:53;;;;;;;6.00;3.15;;;;;;;13.43;100.00;101209.16;694439;28;1103;-58
2023/05/29 00:59:15;;;;;;;7.40;3.70;;;;;;;13.41;100.00;101211.81;693685;28;1627;-59
2023/05/29 00:59:36;;;;;;;6.65;3.40;;;;;;;13.48;100.00;101210.00;695536;28;925;-59
2023/05/29 00:59:58;;;;;;;7.15;3.50;;;;;;;13.52;100.00;101210.88;695191;28;1285;-59
2023/05/29 01:00:20;;;;;;;7.13;3.40;;;;;;;13.49;100.00;101211.75;693247;28;1614;-59
2023/05/29 01:00:40;;;;;;;7.65;3.30;;;;;;;13.48;100.00;101212.63;690674;28;1414;-60
2023/05/29 01:01:03;;;;;;;7.40;3.20;;;;;;;13.45;100.00;101207.41;689779;28;888;-59
2023/05/29 01:01:24;;;;;;;7.30;3.65;;;;;;;13.39;100.00;101205.72;686815;28;4440;-59
2023/05/29 01:01:44;;;;;;;7.00;3.78;;;;;;;13.41;100.00;101208.31;689941;28;1503;-59
2023/05/29 01:02:05;;;;;;;6.87;3.50;;;;;;;13.41;100.00;101210.94;693788;28;989;-59
2023/05/29 01:02:29;;;;;;;8.63;3.70;;;;;;;13.40;100.00;101214.44;695591;28;1003;-59
2023/05/29 01:02:52;;;;;;;8.55;3.60;;;;;;;13.43;100.00;101214.41;696677;28;1006;-59
2023/05/29 01:03:17;;;;;;;8.55;4.53;;;;;;;13.45;100.00;101215.28;696030;28;1435;-59
2023/05/29 01:03:38;;;;;;;7.38;3.67;;;;;;;13.42;100.00;101207.44;699847;28;1026;-59
2023/05/29 01:04:00;;;;;;;6.78;3.33;;;;;;;13.39;100.00;101213.59;700758;28;876;-59
2023/05/29 01:04:23;;;;;;;8.10;3.63;;;;;;;13.45;100.00;101213.53;698925;28;4396;-59
2023/05/29 01:04:45;;;;;;;7.53;3.65;;;;;;;13.43;100.00;101212.69;698621;28;1278;-59
2023/05/29 01:05:06;;;;;;;6.57;3.30;;;;;;;13.40;100.00;101215.34;699336;28;1545;-59
2023/05/29 01:05:27;;;;;;;7.72;3.30;;;;;;;13.38;100.00;101213.59;700310;28;939;-59
2023/05/29 01:05:47;;;;;;;7.13;3.15;;;;;;;13.39;100.00;101223.25;699739;28;1058;-59
2023/05/29 01:06:07;;;;;;;6.15;3.38;;;;;;;13.35;100.00;101218.84;699034;28;1589;-59
2023/05/29 01:06:30;;;;;;;6.67;3.23;;;;;;;13.32;100.00;101217.13;701105;28;1216;-59
2023/05/29 01:06:51;;;;;;;6.60;3.30;;;;;;;13.35;100.00;101221.47;698917;28;1487;-59
2023/05/29 01:07:13;;;;;;;7.15;3.10;;;;;;;13.33;100.00;101221.47;698527;28;1503;-59
2023/05/29 01:07:34;;;;;;;7.15;3.03;;;;;;;13.31;100.00;101214.50;700810;28;4684;-59
2023/05/29 01:07:54;;;;;;;7.28;3.00;;;;;;;13.29;100.00;101222.38;698833;28;1091;-59
2023/05/29 01:08:15;;;;;;;6.03;3.07;;;;;;;13.29;100.00;101218.00;697947;28;1467;-59
2023/05/29 01:08:36;;;;;;;5.72;3.05;;;;;;;13.27;100.00;101225.00;698754;28;1179;-59
2023/05/29 01:08:56;;;;;;;5.47;2.83;;;;;;;13.24;100.00;101214.53;699463;28;1143;-59
2023/05/29 01:09:16;;;;;;;6.15;3.00;;;;;;;13.26;100.00;101220.66;695855;28;1487;-59
2023/05/29 01:09:37;;;;;;;5.90;3.03;;;;;;;13.24;100.00;101217.16;695229;28;1621;-59
2023/05/29 01:10:01;;;;;;;6.93;3.25;;;;;;;13.20;100.00;101223.31;692752;28;1333;-59
2023/05/29 01:10:21;;;;;;;5.45;2.85;;;;;;;13.22;100.00;101220.69;690107;28;4313;-59
2023/05/29 01:10:42;;;;;;;6.33;3.10;;;;;;;13.22;100.00;101226.81;691603;28;1125;-59
2023/05/29 01:11:47;;;;;;;6.18;3.10;;;;;;;13.26;100.00;101215.41;692472;28;2131;-59
2023/05/29 01:12:25;;;;;;;6.50;2.88;;;;;;;13.23;100.00;101218.03;699199;28;1545;-59
2023/05/29 01:12:51;;;;;;;6.30;2.90;;;;;;;13.23;100.00;101225.06;699535;28;915;-59
2023/05/29 01:13:19;;;;;;;6.10;2.80;;;;;;;13.24;100.00;101218.94;698467;28;1494;-59
2023/05/29 01:13:44;;;;;;;5.20;2.80;;;;;;;13.22;100.00;101213.69;698919;28;4331;-59
2023/05/29 01:14:09;;;;;;;5.30;2.95;;;;;;;13.20;100.00;101218.06;699748;28;1196;-59
2023/05/29 01:14:53;;;;;;;5.78;2.78;;;;;;;13.29;100.00;101218.00;701159;28;1353;-58
2023/05/29 01:15:29;;;;;;;5.93;3.08;;;;;;;13.21;100.00;101219.81;687602;28;2300;-58
2023/05/29 01:15:58;;;;;;;6.97;3.70;;;;;;;13.27;100.00;101218.91;689233;28;926;-58
2023/05/29 01:16:30;;;;;;;6.55;3.67;;;;;;;13.34;100.00;101215.34;695972;28;1326;-58
2023/05/29 01:17:00;;;;;;;7.60;4.25;;;;;;;13.32;100.00;101221.47;697996;28;7301;-59
2023/05/29 01:17:32;;;;;;;7.22;4.00;;;;;;;13.38;100.00;101222.34;699941;28;2003;-59
2023/05/29 01:18:08;;;;;;;6.50;3.30;;;;;;;13.26;100.00;101220.66;697138;28;1186;-58
2023/05/29 01:18:40;;;;;;;6.20;2.97;;;;;;;13.24;100.00;101211.91;698273;28;1002;-58
2023/05/29 01:19:15;;;;;;;5.75;3.00;;;;;;;13.18;100.00;101225.09;697887;28;1058;-58
2023/05/29 01:19:51;;;;;;;6.63;3.03;;;;;;;13.17;100.00;101217.22;697738;28;4497;-58
2023/05/29 01:20:23;;;;;;;6.63;3.05;;;;;;;13.14;100.00;101217.22;700895;28;1562;-59
2023/05/29 01:21:08;;;;;;;4.70;2.80;;;;;;;13.18;100.00;101214.59;700674;28;1026;-59
2023/05/29 01:22:00;;;;;;;6.47;2.95;;;;;;;13.23;100.00;101212.78;702467;28;856;-58
2023/05/29 01:22:42;;;;;;;7.40;3.80;;;;;;;13.10;100.00;101216.41;698001;28;4379;-58
2023/05/29 01:23:03;;;;;;;7.18;3.25;;;;;;;13.13;100.00;101218.13;699451;28;1062;-58
2023/05/29 01:23:43;;;;;;;5.80;2.90;;;;;;;13.16;100.00;101220.72;699074;28;1496;-58
2023/05/29 01:24:18;;;;;;;5.65;2.95;;;;;;;13.15;100.00;101219.84;699799;28;926;-58
2023/05/29 01:24:50;;;;;;;5.55;2.80;;;;;;;13.08;100.00;101221.66;699829;28;983;-59
2023/05/29 01:25:52;;;;;;;5.03;2.80;;;;;;;13.11;100.00;101218.13;698266;28;1657;-59
2023/05/29 01:26:51;;;;;;;5.43;3.15;;;;;;;13.10;100.00;101216.41;669640;28;4721;-59
2023/05/29 01:27:12;;;;;;;5.63;2.85;;;;;;;13.03;100.00;101227.78;682720;28;1869;-59
2023/05/29 01:27:33;;;;;;;5.63;2.50;;;;;;;13.12;100.00;101225.13;683805;28;1483;-58
2023/05/29 01:27:55;;;;;;;6.07;2.60;;;;;;;13.09;100.00;101226.00;681044;28;1081;-58
2023/05/29 01:28:20;;;;;;;5.60;2.90;;;;;;;13.04;100.00;101230.44;684241;28;1430;-59
2023/05/29 01:28:43;;;;;;;6.50;3.10;;;;;;;13.03;100.00;101222.53;683193;28;1571;-59
2023/05/29 01:29:07;;;;;;;5.63;2.90;;;;;;;12.99;100.00;101232.19;682384;28;835;-59
2023/05/29 01:29:33;;;;;;;5.15;3.00;;;;;;;12.94;100.00;101223.47;681479;29;1236;-58
2023/05/29 01:29:56;;;;;;;5.50;3.03;;;;;;;12.98;100.00;101226.97;680936;28;1017;-58
2023/05/29 01:30:16;;;;;;;5.75;2.80;;;;;;;13.00;100.00;101223.47;682429;28;1480;-58
2023/05/29 01:30:38;;;;;;;5.13;2.50;;;;;;;12.98;100.00;101233.06;686512;28;1471;-59
2023/05/29 01:31:00;;;;;;;5.30;2.50;;;;;;;12.95;100.00;101228.72;686959;28;1200;-58
2023/05/29 01:31:25;;;;;;;5.47;2.70;;;;;;;12.93;100.00;101224.34;682655;28;4507;-57
2023/05/29 01:31:46;;;;;;;5.30;2.60;;;;;;;12.95;100.00;101228.72;686064;28;960;-59
2023/05/29 01:32:06;;;;;;;4.75;2.50;;;;;;;12.98;100.00;101227.81;690798;28;1184;-58
2023/05/29 01:32:27;;;;;;;5.38;2.63;;;;;;;12.97;100.00;101230.47;696729;28;1286;-59
2023/05/29 01:32:48;;;;;;;7.68;2.60;;;;;;;12.93;100.00;101224.34;696418;28;1415;-59
2023/05/29 01:33:09;;;;;;;6.20;2.58;;;;;;;12.92;100.00;101226.13;696897;28;1502;-59
2023/05/29 01:33:30;;;;;;;5.30;3.17;;;;;;;12.93;100.00;101230.50;700354;28;5414;-58
2023/05/29 01:33:59;;;;;;;5.28;2.70;;;;;;;13.11;100.00;101232.13;698947;28;924;-58
2023/05/29 01:34:19;;;;;;;5.80;2.65;;;;;;;13.19;100.00;101226.81;698249;28;1570;-59
2023/05/29 01:34:40;;;;;;;5.67;2.50;;;;;;;13.15;100.00;101225.09;699836;28;4587;-58
2023/05/29 01:35:00;;;;;;;5.63;2.58;;;;;;;13.12;100.00;101227.75;700759;28;1035;-58
2023/05/29 01:35:21;;;;;;;5.63;2.77;;;;;;;13.10;100.00;101230.38;699222;28;1145;-58
2023/05/29 01:35:41;;;;;;;5.50;2.95;;;;;;;13.05;100.00;101226.91;699931;28;1270;-58
2023/05/29 01:36:01;;;;;;;4.87;2.67;;;;;;;13.02;100.00;101232.19;700998;28;1214;-59
2023/05/29 01:36:23;;;;;;;5.27;2.70;;;;;;;12.99;100.00;101226.06;698630;28;1553;-58
2023/05/29 01:36:43;;;;;;;5.45;2.80;;;;;;;12.93;100.00;101222.63;696572;28;2069;-58
2023/05/29 01:37:04;;;;;;;5.85;3.17;;;;;;;12.91;100.00;101224.34;697279;28;935;-59
2023/05/29 01:37:25;;;;;;;6.70;2.67;;;;;;;12.91;100.00;101228.75;689946;28;4940;-58
2023/05/29 01:37:45;;;;;;;5.78;2.72;;;;;;;12.87;100.00;101221.78;690835;28;1623;-58
2023/05/29 01:38:05;;;;;;;6.07;3.10;;;;;;;12.85;100.00;101229.66;692125;28;1039;-58
2023/05/29 01:38:26;;;;;;;6.32;2.78;;;;;;;12.85;100.00;101226.13;691664;28;1563;-59
2023/05/29 01:38:47;;;;;;;4.63;2.70;;;;;;;12.82;100.00;101232.31;694137;28;957;-59
2023/05/29 01:39:09;;;;;;;4.70;2.60;;;;;;;12.80;100.00;101234.03;694075;28;1513;-59
2023/05/29 01:39:31;;;;;;;5.38;2.80;;;;;;;12.78;100.00;101230.56;698919;28;1472;-58
2023/05/29 01:39:53;;;;;;;7.20;2.70;;;;;;;12.82;100.00;101231.41;698841;28;956;-58
2023/05/29 01:40:13;;;;;;;4.85;2.53;;;;;;;12.79;100.00;101229.66;697456;28;1680;-58
2023/05/29 01:40:34;;;;;;;6.43;2.63;;;;;;;12.79;100.00;101237.53;697184;28;4373;-60
2023/05/29 01:40:54;;;;;;;5.90;2.50;;;;;;;12.78;100.00;101233.19;694900;28;1241;-59
2023/05/29 01:41:16;;;;;;;5.23;2.63;;;;;;;12.80;100.00;101236.66;690139;28;1485;-58
2023/05/29 01:41:37;;;;;;;5.15;2.50;;;;;;;12.77;100.00;101236.69;693321;28;976;-59
2023/05/29 01:42:01;;;;;;;5.55;2.60;;;;;;;12.79;100.00;101237.53;693620;28;1141;-58
2023/05/29 01:42:22;;;;;;;5.70;2.90;;;;;;;12.78;100.00;101241.06;693164;28;1665;-59
2023/05/29 01:42:43;;;;;;;5.70;2.88;;;;;;;12.81;100.00;101234.91;695072;28;1341;-58
2023/05/29 01:43:03;;;;;;;6.70;3.00;;;;;;;12.83;100.00;101239.28;699774;28;1035;-59
2023/05/29 01:43:24;;;;;;;5.87;2.70;;;;;;;12.79;100.00;101240.16;700727;28;4545;-59
2023/05/29 01:43:46;;;;;;;5.35;2.63;;;;;;;12.78;100.00;101241.06;701999;28;979;-58
2023/05/29 01:44:08;;;;;;;5.13;2.92;;;;;;;12.76;100.00;101242.81;700805;28;1211;-58
2023/05/29 01:44:29;;;;;;;6.63;2.85;;;;;;;12.73;100.00;101246.31;700751;28;828;-58
2023/05/29 01:44:50;;;;;;;6.38;2.97;;;;;;;12.71;100.00;101249.81;698923;28;1083;-58
2023/05/29 01:45:11;;;;;;;5.72;2.75;;;;;;;12.67;100.00;101243.72;698562;28;1505;-58
2023/05/29 01:45:32;;;;;;;5.95;2.80;;;;;;;12.65;100.00;101240.22;701591;28;1096;-58
2023/05/29 01:45:53;;;;;;;5.43;2.90;;;;;;;12.67;100.00;101248.97;699216;28;1142;-58
2023/05/29 01:46:15;;;;;;;5.97;2.80;;;;;;;12.68;100.00;101239.34;698525;28;1581;-57
2023/05/29 01:46:37;;;;;;;5.50;2.88;;;;;;;12.68;100.00;101234.09;700416;28;4326;-58